Jsp Amihan — V2GX7 — position and weather

sailwx.info

Track history (hours):
 
Tides and Currents Weather Stations Pressure Air Temp Water Temp Dewpoint Dewpoint Depression Visibility Wind Speed Wind Dir Waves Ship Positions

Jsp Amihan

Last reported at 2017-Sep-21 07:51 UTC. Time now 2017-Sep-23 07:15 UTC.
Position N 26°12' W 079°28'.

Length 139 m; draft 7 m.

Type: Ship (hazmat cat C). MMSI: 305007000.

Date/timePositionNaut miles runAvg speedWind from/ knotsBaromVisibWave heightAir tempDewpointWater temp
2017-Sep-21 07:51N 26°12' W 079°28'515.6
2017-Sep-21 07:30N 26°09' W 079°33'714.9
2017-Sep-21 07:00N 26°08' W 079°41'815.1
2017-Sep-21 06:30N 26°07' W 079°50'815.1
2017-Sep-21 06:00N 26°06' W 079°58'713.8
2017-Sep-21 05:30N 26°06' W 080°06'2 3.5
2017-Sep-21 05:00N 26°04' W 080°07'0 0.0
2017-Sep-21 04:27N 26°04' W 080°07'0 0.0
2017-Sep-21 03:51N 26°04' W 080°07'0 0.0
2017-Sep-21 03:27N 26°04' W 080°07'0 0.0
2017-Sep-21 02:53N 26°04' W 080°07'0 0.0
2017-Sep-21 02:27N 26°04' W 080°07'0 0.0
2017-Sep-21 01:57N 26°04' W 080°07'0 0.0
2017-Sep-21 01:27N 26°04' W 080°07'0 0.0
2017-Sep-21 00:57N 26°04' W 080°07'0 0.0
2017-Sep-21 00:27N 26°04' W 080°07'0 0.2
2017-Sep-21 00:00N 26°04' W 080°07'2 5.0
2017-Sep-20 23:30N 26°06' W 080°05'3 6.8
2017-Sep-20 23:01N 26°07' W 080°01'1 1.7
2017-Sep-20 22:30N 26°07' W 080°02'1 1.3
2017-Sep-20 22:00N 26°07' W 080°03'1 1.4
2017-Sep-20 21:30N 26°06' W 080°03'3 5.2
2017-Sep-20 21:00N 26°06' W 079°60'2 5.0
2017-Sep-20 20:30N 26°06' W 079°57'4 8.0
2017-Sep-20 20:00N 26°07' W 079°52'510.9
2017-Sep-20 19:30N 26°07' W 079°46'611.4
2017-Sep-20 19:00N 26°08' W 079°40'611.0
2017-Sep-20 18:30N 26°09' W 079°34'611.2
2017-Sep-20 18:00N 26°11' W 079°28'  
2017-Sep-16 23:37N 26°07' W 079°48'514.3
2017-Sep-16 23:16N 26°06' W 079°54'414.1
2017-Sep-16 22:59N 26°06' W 079°58'613.2
2017-Sep-16 22:30N 26°05' W 080°05'2 3.8
2017-Sep-16 22:00N 26°04' W 080°07'0 0.6
2017-Sep-16 21:30N 26°04' W 080°07'0 0.0
2017-Sep-16 21:00N 26°04' W 080°07'0 0.0
2017-Sep-16 20:30N 26°04' W 080°07'0 0.0
2017-Sep-16 20:00N 26°04' W 080°07'0 0.0
2017-Sep-16 19:30N 26°04' W 080°07'0 0.0
2017-Sep-16 19:00N 26°04' W 080°07'0 0.0
2017-Sep-16 18:30N 26°04' W 080°07'0 0.0
2017-Sep-16 18:00N 26°04' W 080°07'0 0.0
2017-Sep-16 17:30N 26°04' W 080°07'0 0.0
2017-Sep-16 17:00N 26°04' W 080°07'0 0.0
2017-Sep-16 16:30N 26°04' W 080°07'1 1.4
2017-Sep-16 16:00N 26°05' W 080°07'3 5.7
2017-Sep-16 15:30N 26°06' W 080°04'2 3.2
2017-Sep-16 15:00N 26°07' W 080°02'4 8.1
2017-Sep-16 14:31N 26°10' W 079°59'0 0.5
2017-Sep-16 13:53N 26°10' W 079°59'0 1.1
2017-Sep-16 13:26N 26°09' W 079°59'1 1.1
2017-Sep-16 13:00N 26°09' W 079°59'1 1.1
2017-Sep-16 12:26N 26°08' W 079°59'1 1.0
2017-Sep-16 11:53N 26°07' W 079°59'0 1.0
2017-Sep-16 11:30N 26°07' W 079°59'1 1.1
2017-Sep-16 10:59N 26°06' W 079°58'1 1.2
2017-Sep-16 10:23N 26°06' W 079°58'1 1.2
2017-Sep-16 09:56N 26°05' W 079°58'1 1.2
2017-Sep-16 09:23N 26°05' W 079°58'0 1.2
2017-Sep-16 09:00N 26°04' W 079°58'1 1.3
2017-Sep-16 08:23N 26°03' W 079°57'0 1.2
2017-Sep-16 07:59N 26°03' W 079°57'1 2.8
2017-Sep-16 07:30N 26°04' W 079°56'510.3
2017-Sep-16 07:00N 26°06' W 079°51'611.1
2017-Sep-16 06:30N 26°07' W 079°45'611.2
2017-Sep-16 06:00N 26°08' W 079°39'510.6
2017-Sep-16 05:30N 26°09' W 079°33'710.4
2017-Sep-16 04:52N 26°13' W 079°26'  
Track history (hours):
 
Tides and Currents Weather Stations Pressure Air Temp Water Temp Dewpoint Dewpoint Depression Visibility Wind Speed Wind Dir Waves Ship Positions

Jsp Amihan

Last reported at 2017-Sep-21 07:51 UTC. Time now 2017-Sep-23 07:15 UTC.
Position N 26°12' W 079°28'.

Length 139 m; draft 7 m.

Type: Ship (hazmat cat C). MMSI: 305007000.

Date/timePositionNaut miles runAvg speedWind from/ knotsBaromVisibWave heightAir tempDewpointWater temp
2017-Sep-21 07:51N 26°12' W 079°28'515.6
2017-Sep-21 07:30N 26°09' W 079°33'714.9
2017-Sep-21 07:00N 26°08' W 079°41'815.1
2017-Sep-21 06:30N 26°07' W 079°50'815.1
2017-Sep-21 06:00N 26°06' W 079°58'713.8
2017-Sep-21 05:30N 26°06' W 080°06'2 3.5
2017-Sep-21 05:00N 26°04' W 080°07'0 0.0
2017-Sep-21 04:27N 26°04' W 080°07'0 0.0
2017-Sep-21 03:51N 26°04' W 080°07'0 0.0
2017-Sep-21 03:27N 26°04' W 080°07'0 0.0
2017-Sep-21 02:53N 26°04' W 080°07'0 0.0
2017-Sep-21 02:27N 26°04' W 080°07'0 0.0
2017-Sep-21 01:57N 26°04' W 080°07'0 0.0
2017-Sep-21 01:27N 26°04' W 080°07'0 0.0
2017-Sep-21 00:57N 26°04' W 080°07'0 0.0
2017-Sep-21 00:27N 26°04' W 080°07'0 0.2
2017-Sep-21 00:00N 26°04' W 080°07'2 5.0
2017-Sep-20 23:30N 26°06' W 080°05'3 6.8
2017-Sep-20 23:01N 26°07' W 080°01'1 1.7
2017-Sep-20 22:30N 26°07' W 080°02'1 1.3
2017-Sep-20 22:00N 26°07' W 080°03'1 1.4
2017-Sep-20 21:30N 26°06' W 080°03'3 5.2
2017-Sep-20 21:00N 26°06' W 079°60'2 5.0
2017-Sep-20 20:30N 26°06' W 079°57'4 8.0
2017-Sep-20 20:00N 26°07' W 079°52'510.9
2017-Sep-20 19:30N 26°07' W 079°46'611.4
2017-Sep-20 19:00N 26°08' W 079°40'611.0
2017-Sep-20 18:30N 26°09' W 079°34'611.2
2017-Sep-20 18:00N 26°11' W 079°28'  
2017-Sep-16 23:37N 26°07' W 079°48'514.3
2017-Sep-16 23:16N 26°06' W 079°54'414.1
2017-Sep-16 22:59N 26°06' W 079°58'613.2
2017-Sep-16 22:30N 26°05' W 080°05'2 3.8
2017-Sep-16 22:00N 26°04' W 080°07'0 0.6
2017-Sep-16 21:30N 26°04' W 080°07'0 0.0
2017-Sep-16 21:00N 26°04' W 080°07'0 0.0
2017-Sep-16 20:30N 26°04' W 080°07'0 0.0
2017-Sep-16 20:00N 26°04' W 080°07'0 0.0
2017-Sep-16 19:30N 26°04' W 080°07'0 0.0
2017-Sep-16 19:00N 26°04' W 080°07'0 0.0
2017-Sep-16 18:30N 26°04' W 080°07'0 0.0
2017-Sep-16 18:00N 26°04' W 080°07'0 0.0
2017-Sep-16 17:30N 26°04' W 080°07'0 0.0
2017-Sep-16 17:00N 26°04' W 080°07'0 0.0
2017-Sep-16 16:30N 26°04' W 080°07'1 1.4
2017-Sep-16 16:00N 26°05' W 080°07'3 5.7
2017-Sep-16 15:30N 26°06' W 080°04'2 3.2
2017-Sep-16 15:00N 26°07' W 080°02'4 8.1
2017-Sep-16 14:31N 26°10' W 079°59'0 0.5
2017-Sep-16 13:53N 26°10' W 079°59'0 1.1
2017-Sep-16 13:26N 26°09' W 079°59'1 1.1
2017-Sep-16 13:00N 26°09' W 079°59'1 1.1
2017-Sep-16 12:26N 26°08' W 079°59'1 1.0
2017-Sep-16 11:53N 26°07' W 079°59'0 1.0
2017-Sep-16 11:30N 26°07' W 079°59'1 1.1
2017-Sep-16 10:59N 26°06' W 079°58'1 1.2
2017-Sep-16 10:23N 26°06' W 079°58'1 1.2
2017-Sep-16 09:56N 26°05' W 079°58'1 1.2
2017-Sep-16 09:23N 26°05' W 079°58'0 1.2
2017-Sep-16 09:00N 26°04' W 079°58'1 1.3
2017-Sep-16 08:23N 26°03' W 079°57'0 1.2
2017-Sep-16 07:59N 26°03' W 079°57'1 2.8
2017-Sep-16 07:30N 26°04' W 079°56'510.3
2017-Sep-16 07:00N 26°06' W 079°51'611.1
2017-Sep-16 06:30N 26°07' W 079°45'611.2
2017-Sep-16 06:00N 26°08' W 079°39'510.6
2017-Sep-16 05:30N 26°09' W 079°33'710.4
2017-Sep-16 04:52N 26°13' W 079°26'  

Dump ship's entire track history